createdAt,value
2023-02-25T00:02:17.515Z,92.34
2023-02-25T00:04:48.177Z,91.71
2023-02-25T00:07:16.958Z,91.58
2023-02-25T00:09:46.176Z,91.82
2023-02-25T00:12:15.014Z,91.89
2023-02-25T00:14:44.057Z,91.45
2023-02-25T00:17:12.973Z,91.16
2023-02-25T00:19:42.248Z,91.13
2023-02-25T00:22:12.482Z,91.14
2023-02-25T00:24:41.701Z,91.07
2023-02-25T00:27:10.478Z,90.93
2023-02-25T00:29:39.552Z,91.50
2023-02-25T00:32:09.226Z,91.33
2023-02-25T00:34:38.565Z,91.45
2023-02-25T00:37:07.401Z,90.88
2023-02-25T00:39:43.089Z,90.44
2023-02-25T00:42:12.855Z,90.69
2023-02-25T00:44:45.034Z,90.88
2023-02-25T00:47:15.073Z,90.47
2023-02-25T00:49:47.627Z,90.63
2023-02-25T00:52:17.675Z,91.20
2023-02-25T00:54:50.406Z,90.87
2023-02-25T00:57:19.295Z,90.78
2023-02-25T00:59:48.557Z,90.86
2023-02-25T01:02:17.453Z,91.71
2023-02-25T01:04:46.508Z,92.34
2023-02-25T01:07:16.536Z,92.77
2023-02-25T01:09:45.638Z,92.90
2023-02-25T01:12:16.178Z,93.01
2023-02-25T01:14:45.350Z,93.28
2023-02-25T01:17:14.165Z,93.75
2023-02-25T01:19:43.266Z,93.87
2023-02-25T01:22:12.194Z,94.11
2023-02-25T01:24:42.017Z,93.75
2023-02-25T01:27:11.817Z,94.38
2023-02-25T01:29:42.681Z,94.55
2023-02-25T01:32:14.963Z,95.22
2023-02-25T01:34:44.204Z,95.43
2023-02-25T01:37:13.025Z,95.62
2023-02-25T01:39:42.349Z,95.33
2023-02-25T01:42:17.406Z,95.24
2023-02-25T01:45:29.658Z,95.23
2023-02-25T01:48:09.601Z,95.10
2023-02-25T01:50:47.544Z,95.25
2023-02-25T01:53:23.920Z,95.90
2023-02-25T01:55:54.215Z,96.13
2023-02-25T01:58:24.203Z,96.17
2023-02-25T02:00:55.973Z,95.86
2023-02-25T02:03:31.714Z,95.77
2023-02-25T02:06:10.441Z,96.30
2023-02-25T02:08:44.780Z,95.96
2023-02-25T02:11:14.097Z,95.88
2023-02-25T02:13:48.714Z,96.04
2023-02-25T02:16:44.909Z,95.88
2023-02-25T02:19:36.845Z,95.67
2023-02-25T02:22:14.365Z,95.41
2023-02-25T02:25:52.802Z,95.13
2023-02-25T02:29:21.024Z,94.83
2023-02-25T02:32:04.522Z,94.87
2023-02-25T02:34:45.415Z,94.86
2023-02-25T02:37:31.376Z,94.72
2023-02-25T02:40:20.908Z,94.45
2023-02-25T02:43:08.191Z,94.49
2023-02-25T02:45:48.113Z,94.46
2023-02-25T02:48:26.022Z,94.50
2023-02-25T02:51:02.292Z,94.80
2023-02-25T02:53:39.182Z,94.58
2023-02-25T02:56:15.104Z,94.55
2023-02-25T02:58:49.689Z,94.57
2023-02-25T03:01:24.278Z,94.51
2023-02-25T03:04:01.282Z,94.41
2023-02-25T03:06:35.798Z,93.78
2023-02-25T03:09:11.291Z,93.68
2023-02-25T03:11:40.920Z,93.67
2023-02-25T03:14:09.829Z,93.58
2023-02-25T03:16:43.935Z,93.95
2023-02-25T03:19:20.391Z,94.08
2023-02-25T03:21:57.182Z,94.14
2023-02-25T03:24:51.316Z,94.92
2023-02-25T03:27:34.573Z,95.51
2023-02-25T03:30:15.778Z,94.89
2023-02-25T03:32:52.568Z,94.80
2023-02-25T03:35:27.216Z,95.75
2023-02-25T03:38:03.447Z,95.15
2023-02-25T03:40:35.141Z,95.39
2023-02-25T03:43:10.575Z,95.55
2023-02-25T03:45:44.648Z,96.12
2023-02-25T03:48:19.211Z,96.96
2023-02-25T03:50:59.333Z,96.96
2023-02-25T03:53:34.858Z,97.18
2023-02-25T03:56:13.510Z,97.13
2023-02-25T03:58:45.799Z,97.30
2023-02-25T04:01:22.644Z,96.15
2023-02-25T04:03:51.864Z,97.00
2023-02-25T04:06:25.403Z,97.98
2023-02-25T04:08:55.031Z,98.03
2023-02-25T04:11:24.495Z,97.29
2023-02-25T04:13:54.684Z,97.47
2023-02-25T04:16:24.538Z,97.48
2023-02-25T04:18:54.008Z,96.99
2023-02-25T04:21:35.414Z,97.39
2023-02-25T04:24:06.913Z,97.26
2023-02-25T04:26:36.639Z,97.30
2023-02-25T04:29:06.072Z,97.76
2023-02-25T04:31:35.143Z,97.94
2023-02-25T04:34:04.475Z,97.67
2023-02-25T04:36:36.930Z,97.56
2023-02-25T04:39:07.189Z,97.72
2023-02-25T04:41:37.395Z,98.24
2023-02-25T04:44:08.487Z,98.12
2023-02-25T04:46:41.491Z,98.90
2023-02-25T04:49:11.834Z,98.94
2023-02-25T04:51:42.077Z,99.47
2023-02-25T04:54:11.703Z,99.55
2023-02-25T04:56:41.308Z,99.35
2023-02-25T04:59:11.392Z,98.82
2023-02-25T05:01:41.179Z,99.39
2023-02-25T05:04:10.636Z,99.70
2023-02-25T05:06:40.236Z,99.64
2023-02-25T05:09:10.670Z,99.34
2023-02-25T05:11:39.468Z,100.00
2023-02-25T05:14:08.617Z,100.00
2023-02-25T05:16:37.878Z,99.56
2023-02-25T05:19:07.181Z,100.00
2023-02-25T05:21:36.216Z,99.90
2023-02-25T05:24:06.122Z,99.63
2023-02-25T05:26:36.450Z,99.86
2023-02-25T05:29:06.024Z,99.88
2023-02-25T05:31:35.002Z,100.00
2023-02-25T05:34:04.639Z,99.67
2023-02-25T05:36:33.463Z,99.52
2023-02-25T05:39:03.130Z,99.62
2023-02-25T05:41:32.325Z,99.45
2023-02-25T05:44:02.718Z,98.91
2023-02-25T05:46:31.611Z,99.14
2023-02-25T05:49:00.759Z,99.49
2023-02-25T05:51:29.881Z,99.29
2023-02-25T05:54:00.411Z,99.31
2023-02-25T05:56:32.142Z,99.10
2023-02-25T05:59:02.971Z,99.41
2023-02-25T06:01:31.874Z,99.86
2023-02-25T06:04:01.262Z,99.70
2023-02-25T06:06:33.184Z,99.80
2023-02-25T06:09:05.817Z,99.44
2023-02-25T06:11:34.788Z,99.51
2023-02-25T06:14:05.254Z,99.20
2023-02-25T06:16:34.158Z,98.56
2023-02-25T06:19:03.542Z,98.89
2023-02-25T06:21:32.658Z,98.78
2023-02-25T06:24:04.812Z,98.68
2023-02-25T06:26:35.445Z,98.95
2023-02-25T06:29:05.922Z,98.43
2023-02-25T06:31:35.067Z,98.06
2023-02-25T06:34:04.509Z,98.19
2023-02-25T06:36:33.838Z,98.28
2023-02-25T06:39:03.083Z,98.25
2023-02-25T06:41:32.322Z,97.96
2023-02-25T06:44:01.441Z,97.67
2023-02-25T06:46:31.830Z,97.87
2023-02-25T06:49:00.976Z,97.45
2023-02-25T06:51:29.780Z,97.34
2023-02-25T06:53:58.991Z,97.34
2023-02-25T06:56:29.167Z,97.31
2023-02-25T06:58:59.738Z,97.08
2023-02-25T07:01:28.773Z,97.03
2023-02-25T07:03:59.388Z,96.97
2023-02-25T07:06:28.363Z,97.16
2023-02-25T07:08:57.413Z,97.02
2023-02-25T07:11:34.652Z,97.35
2023-02-25T07:14:06.241Z,96.74
2023-02-25T07:16:35.401Z,96.94
2023-02-25T07:19:05.957Z,96.97
2023-02-25T07:21:34.932Z,96.73
2023-02-25T07:24:04.279Z,96.50
2023-02-25T07:26:33.088Z,96.86
2023-02-25T07:29:05.079Z,96.22
2023-02-25T07:31:34.857Z,96.03
2023-02-25T07:34:05.392Z,95.66
2023-02-25T07:36:38.061Z,94.89
2023-02-25T07:39:10.198Z,95.05
2023-02-25T07:41:39.850Z,95.34
2023-02-25T07:44:13.269Z,95.38
2023-02-25T07:46:42.551Z,95.45
2023-02-25T07:49:12.744Z,95.40
2023-02-25T07:51:41.864Z,94.98
2023-02-25T07:54:10.685Z,94.70
2023-02-25T07:56:39.779Z,94.43
2023-02-25T07:59:08.567Z,94.72
2023-02-25T08:01:39.620Z,94.54
2023-02-25T08:04:10.461Z,94.59
2023-02-25T08:06:42.664Z,95.04
2023-02-25T08:09:13.141Z,95.12
2023-02-25T08:11:44.151Z,95.28
2023-02-25T08:14:13.219Z,94.51
2023-02-25T08:16:42.382Z,94.21
2023-02-25T08:19:11.217Z,94.56
2023-02-25T08:21:41.861Z,94.13
2023-02-25T08:24:10.831Z,94.77
2023-02-25T08:26:41.213Z,94.46
2023-02-25T08:29:10.138Z,94.64
2023-02-25T08:31:39.402Z,94.57
2023-02-25T08:34:08.637Z,94.41
2023-02-25T08:36:37.708Z,94.47
2023-02-25T08:39:09.182Z,93.88
2023-02-25T08:41:39.158Z,94.10
2023-02-25T08:44:08.283Z,94.07
2023-02-25T08:46:40.414Z,93.33
2023-02-25T08:49:09.379Z,92.73
2023-02-25T08:51:39.872Z,91.93
2023-02-25T08:54:13.323Z,92.84
2023-02-25T08:56:44.537Z,93.49
2023-02-25T08:59:16.597Z,92.92
2023-02-25T09:01:46.103Z,92.78
2023-02-25T09:04:17.889Z,93.63
2023-02-25T09:06:48.150Z,92.79
2023-02-25T09:09:20.652Z,92.36
2023-02-25T09:11:50.587Z,91.88
2023-02-25T09:14:20.706Z,91.79
2023-02-25T09:16:50.373Z,91.92
2023-02-25T09:19:20.819Z,91.54
2023-02-25T09:21:50.364Z,91.59
2023-02-25T09:24:20.777Z,91.43
2023-02-25T09:26:49.912Z,89.70
2023-02-25T09:29:18.960Z,90.01
2023-02-25T09:31:48.160Z,88.64
2023-02-25T09:34:17.079Z,88.50
2023-02-25T09:36:46.155Z,87.71
2023-02-25T09:39:15.070Z,86.95
2023-02-25T09:41:55.314Z,87.01
2023-02-25T09:44:32.123Z,86.66
2023-02-25T09:47:12.776Z,87.63
2023-02-25T09:49:48.232Z,87.20
2023-02-25T09:52:24.878Z,86.16
2023-02-25T09:55:00.820Z,86.40
2023-02-25T09:57:36.764Z,86.65
2023-02-25T10:00:12.674Z,86.32
2023-02-25T10:02:53.187Z,85.01
2023-02-25T10:05:30.281Z,83.10
2023-02-25T10:08:10.083Z,82.40
2023-02-25T10:10:51.912Z,83.01
2023-02-25T10:13:42.321Z,82.92
2023-02-25T10:16:39.730Z,82.56
2023-02-25T10:19:28.793Z,83.94
2023-02-25T10:22:34.530Z,84.32
2023-02-25T10:25:14.097Z,85.38
2023-02-25T10:27:51.591Z,87.17
2023-02-25T10:30:31.423Z,87.18
2023-02-25T10:33:05.806Z,87.65
2023-02-25T10:35:42.008Z,88.05
2023-02-25T10:38:12.819Z,89.34
2023-02-25T10:40:42.653Z,88.61
2023-02-25T10:43:22.783Z,88.73
2023-02-25T10:46:02.570Z,89.36
2023-02-25T10:48:32.226Z,89.78
2023-02-25T10:51:09.892Z,88.63
2023-02-25T10:53:40.152Z,88.54
2023-02-25T10:56:11.230Z,88.10
2023-02-25T10:58:44.620Z,88.58
2023-02-25T11:01:20.822Z,89.42
2023-02-25T11:03:59.174Z,88.79
2023-02-25T11:06:31.495Z,89.31
2023-02-25T11:09:03.666Z,89.56
2023-02-25T11:11:34.762Z,91.24
2023-02-25T11:14:07.848Z,91.65
2023-02-25T11:16:41.477Z,92.58
2023-02-25T11:19:18.181Z,92.58
2023-02-25T11:21:48.725Z,92.89
2023-02-25T11:24:23.726Z,92.64
2023-02-25T11:26:53.857Z,92.40
2023-02-25T11:29:27.310Z,93.04
2023-02-25T11:32:05.153Z,93.54
2023-02-25T11:34:40.171Z,93.08
2023-02-25T11:37:39.205Z,91.48
2023-02-25T11:40:28.826Z,91.27
2023-02-25T11:43:18.166Z,91.45
2023-02-25T11:46:00.298Z,91.85
2023-02-25T11:48:41.231Z,90.49
2023-02-25T11:51:27.398Z,89.67
2023-02-25T11:54:25.729Z,89.98
2023-02-25T11:57:01.880Z,87.92
2023-02-25T11:59:39.777Z,88.90
2023-02-25T12:02:27.792Z,89.59
2023-02-25T12:05:35.717Z,89.52
2023-02-25T12:08:37.381Z,90.47
2023-02-25T12:12:05.721Z,92.43
2023-02-25T12:15:27.071Z,92.36
2023-02-25T12:18:39.639Z,92.51
2023-02-25T12:22:12.749Z,93.72
2023-02-25T12:25:23.046Z,92.93
2023-02-25T12:28:26.152Z,92.63
2023-02-25T12:31:31.197Z,92.72
2023-02-25T12:34:47.219Z,91.77
2023-02-25T12:37:47.324Z,91.39
2023-02-25T12:40:40.412Z,91.14
2023-02-25T12:43:29.920Z,91.95
2023-02-25T12:46:20.900Z,91.39
2023-02-25T12:49:35.542Z,90.05
2023-02-25T12:52:25.450Z,89.45
2023-02-25T12:55:36.079Z,89.05
2023-02-25T12:58:31.328Z,87.42
2023-02-25T13:01:44.071Z,86.51
2023-02-25T13:04:54.056Z,86.58
2023-02-25T13:07:45.978Z,87.13
2023-02-25T13:10:37.066Z,89.52
2023-02-25T13:13:40.472Z,90.89
2023-02-25T13:16:28.157Z,89.84
2023-02-25T13:19:37.080Z,90.65
2023-02-25T13:22:19.653Z,90.62
2023-02-25T13:25:00.940Z,90.10
2023-02-25T13:27:57.998Z,89.41
2023-02-25T13:30:47.699Z,89.03
2023-02-25T13:33:56.235Z,89.25
2023-02-25T13:37:05.526Z,89.10
2023-02-25T13:40:06.386Z,89.08
2023-02-25T13:43:10.757Z,89.24
2023-02-25T13:46:21.255Z,87.45
2023-02-25T13:49:46.872Z,87.92
2023-02-25T13:52:30.264Z,87.39
2023-02-25T13:55:28.417Z,88.30
2023-02-25T13:58:25.249Z,87.96
2023-02-25T14:01:35.939Z,88.30
2023-02-25T14:04:55.634Z,87.10
2023-02-25T14:08:05.040Z,86.73
2023-02-25T14:10:48.110Z,87.40
2023-02-25T14:13:59.610Z,86.21
2023-02-25T14:16:48.268Z,85.37
2023-02-25T14:19:41.355Z,84.59
2023-02-25T14:22:37.884Z,84.89
2023-02-25T14:25:23.855Z,85.79
2023-02-25T14:28:08.383Z,86.58
2023-02-25T14:31:03.125Z,86.95
2023-02-25T14:34:02.369Z,87.53
2023-02-25T14:36:56.064Z,88.23
2023-02-25T14:39:44.935Z,86.67
2023-02-25T14:42:39.477Z,86.71
2023-02-25T14:45:21.698Z,86.66
2023-02-25T14:48:03.190Z,86.23
2023-02-25T14:50:42.182Z,87.01
2023-02-25T14:53:43.753Z,85.02
2023-02-25T14:56:47.536Z,85.06
2023-02-25T15:00:09.716Z,85.65
2023-02-25T15:03:08.464Z,87.82
2023-02-25T15:06:06.585Z,88.78
2023-02-25T15:09:21.091Z,89.97
2023-02-25T15:12:21.110Z,90.64
2023-02-25T15:15:25.347Z,89.38
2023-02-25T15:18:58.368Z,88.91
2023-02-25T15:21:44.108Z,88.55
2023-02-25T15:24:41.473Z,88.65
2023-02-25T15:27:45.826Z,87.85
2023-02-25T15:30:18.970Z,87.59
2023-02-25T15:33:07.001Z,87.27
2023-02-25T15:36:41.134Z,87.21
2023-02-25T15:39:11.539Z,87.41
2023-02-25T15:42:00.059Z,86.82
2023-02-25T15:44:38.335Z,86.72
2023-02-25T15:47:30.285Z,87.50
2023-02-25T15:50:00.673Z,87.71
2023-02-25T15:52:58.783Z,88.84
2023-02-25T15:55:43.409Z,88.71
2023-02-25T15:58:44.759Z,88.93
2023-02-25T16:01:37.886Z,89.17
2023-02-25T16:04:44.340Z,89.80
2023-02-25T16:07:18.642Z,90.28
2023-02-25T16:09:56.342Z,90.68
2023-02-25T16:12:26.318Z,91.41
2023-02-25T16:14:59.180Z,91.91
2023-02-25T16:17:34.474Z,92.20
2023-02-25T16:20:18.289Z,92.05
2023-02-25T16:22:57.480Z,92.62
2023-02-25T16:25:42.425Z,93.04
2023-02-25T16:28:26.842Z,92.59
2023-02-25T16:31:06.530Z,92.31
2023-02-25T16:33:46.115Z,92.51
2023-02-25T16:36:30.910Z,92.18
2023-02-25T16:39:04.456Z,92.53
2023-02-25T16:41:38.953Z,92.67
2023-02-25T16:44:09.507Z,93.24
2023-02-25T16:46:41.610Z,93.39
2023-02-25T16:49:22.028Z,93.33
2023-02-25T16:51:55.365Z,93.88
2023-02-25T16:54:31.639Z,94.02
2023-02-25T16:57:07.421Z,93.73
2023-02-25T16:59:38.679Z,93.11
2023-02-25T17:02:25.848Z,93.29
2023-02-25T17:04:57.222Z,93.73
2023-02-25T17:07:30.213Z,94.06
2023-02-25T17:10:02.472Z,94.56
2023-02-25T17:12:41.252Z,95.01
2023-02-25T17:15:20.621Z,94.84
2023-02-25T17:17:56.554Z,95.74
2023-02-25T17:20:29.032Z,96.34
2023-02-25T17:23:01.130Z,96.47
2023-02-25T17:25:38.382Z,97.14
2023-02-25T17:28:20.700Z,97.53
2023-02-25T17:30:50.591Z,97.96
2023-02-25T17:33:26.214Z,97.60
2023-02-25T17:36:02.974Z,97.23
2023-02-25T17:38:32.377Z,97.44
2023-02-25T17:41:01.693Z,97.44
2023-02-25T17:43:37.801Z,97.49
2023-02-25T17:46:24.819Z,97.40
2023-02-25T17:49:00.002Z,96.95
2023-02-25T17:51:33.763Z,96.55
2023-02-25T17:54:08.882Z,97.08
2023-02-25T17:56:38.312Z,96.94
2023-02-25T17:59:36.681Z,96.72
2023-02-25T18:02:32.623Z,96.77
2023-02-25T18:05:24.038Z,97.47
2023-02-25T18:08:18.916Z,97.61
2023-02-25T18:11:03.326Z,97.59
2023-02-25T18:13:38.091Z,98.24
2023-02-25T18:16:38.659Z,98.76
2023-02-25T18:19:33.877Z,98.64
2023-02-25T18:22:03.188Z,98.73
2023-02-25T18:24:35.821Z,98.52
2023-02-25T18:27:21.796Z,98.90
2023-02-25T18:29:50.635Z,98.63
2023-02-25T18:32:21.173Z,99.06
2023-02-25T18:34:50.020Z,99.07
2023-02-25T18:37:20.462Z,99.15
2023-02-25T18:39:51.354Z,99.20
2023-02-25T18:42:20.757Z,99.16
2023-02-25T18:44:50.151Z,99.26
2023-02-25T18:47:20.646Z,99.23
2023-02-25T18:49:49.515Z,99.06
2023-02-25T18:52:23.852Z,98.56
2023-02-25T18:54:52.842Z,99.33
2023-02-25T18:57:25.698Z,99.55
2023-02-25T18:59:54.790Z,99.56
2023-02-25T19:02:34.289Z,99.48
2023-02-25T19:05:06.840Z,98.98
2023-02-25T19:07:37.204Z,98.81
2023-02-25T19:10:08.215Z,99.16
2023-02-25T19:12:37.550Z,98.98
2023-02-25T19:15:16.585Z,98.77
2023-02-25T19:17:47.375Z,97.47
2023-02-25T19:20:21.181Z,97.44
2023-02-25T19:22:53.854Z,97.75
2023-02-25T19:25:27.594Z,96.66
2023-02-25T19:27:58.340Z,96.57
2023-02-25T19:30:30.790Z,96.81
2023-02-25T19:33:04.745Z,96.70
2023-02-25T19:35:37.426Z,96.64
2023-02-25T19:38:08.839Z,96.32
2023-02-25T19:40:38.358Z,96.46
2023-02-25T19:43:07.663Z,96.61
2023-02-25T19:45:36.644Z,96.50
2023-02-25T19:48:10.126Z,95.78
2023-02-25T19:50:46.589Z,95.61
2023-02-25T19:53:16.038Z,95.69
2023-02-25T19:55:45.000Z,95.69
2023-02-25T19:58:14.364Z,95.81
2023-02-25T20:00:46.305Z,95.63
2023-02-25T20:03:17.314Z,95.29
2023-02-25T20:05:46.332Z,95.05
2023-02-25T20:08:15.610Z,94.44
2023-02-25T20:10:44.973Z,94.69
2023-02-25T20:13:14.986Z,94.43
2023-02-25T20:15:43.832Z,94.46
2023-02-25T20:18:12.938Z,94.38
2023-02-25T20:20:44.130Z,93.84
2023-02-25T20:23:13.382Z,94.45
2023-02-25T20:25:42.475Z,94.75
2023-02-25T20:28:11.607Z,94.84
2023-02-25T20:30:40.489Z,94.88
2023-02-25T20:33:09.669Z,94.87
2023-02-25T20:35:39.210Z,93.96
2023-02-25T20:38:23.821Z,93.80
2023-02-25T20:40:52.976Z,94.20
2023-02-25T20:43:22.713Z,94.00
2023-02-25T20:45:51.950Z,93.59
2023-02-25T20:48:29.206Z,93.46
2023-02-25T20:50:58.819Z,92.89
2023-02-25T20:53:29.839Z,92.60
2023-02-25T20:55:59.605Z,93.00
2023-02-25T20:58:28.701Z,92.22
2023-02-25T21:00:57.640Z,92.92
2023-02-25T21:03:26.755Z,92.86
2023-02-25T21:05:55.623Z,92.71
2023-02-25T21:08:24.786Z,92.34
2023-02-25T21:10:55.054Z,92.60
2023-02-25T21:13:24.213Z,92.83
2023-02-25T21:15:53.106Z,92.98
2023-02-25T21:18:22.193Z,92.82
2023-02-25T21:20:57.881Z,93.22
2023-02-25T21:23:27.223Z,93.39
2023-02-25T21:25:58.039Z,92.97
2023-02-25T21:28:27.635Z,93.38
2023-02-25T21:31:03.014Z,93.18
2023-02-25T21:33:33.322Z,92.90
2023-02-25T21:36:03.011Z,92.79
2023-02-25T21:38:32.510Z,92.67
2023-02-25T21:41:10.113Z,92.96
2023-02-25T21:43:40.353Z,93.21
2023-02-25T21:46:12.075Z,92.65
2023-02-25T21:48:42.411Z,92.80
2023-02-25T21:51:17.724Z,93.03
2023-02-25T21:53:47.554Z,93.17
2023-02-25T21:56:18.762Z,92.54
2023-02-25T21:58:48.299Z,92.41
2023-02-25T22:01:21.546Z,91.83
2023-02-25T22:03:50.987Z,90.55
2023-02-25T22:06:24.055Z,89.96
2023-02-25T22:08:54.980Z,90.01
2023-02-25T22:11:29.245Z,89.78
2023-02-25T22:14:00.828Z,89.90
2023-02-25T22:16:30.224Z,89.64
2023-02-25T22:19:00.627Z,89.76
2023-02-25T22:21:31.385Z,89.41
2023-02-25T22:24:04.151Z,90.31
2023-02-25T22:26:36.982Z,89.78
2023-02-25T22:29:10.009Z,89.48
2023-02-25T22:31:41.266Z,89.21
2023-02-25T22:34:11.419Z,89.43
2023-02-25T22:36:40.251Z,90.09
2023-02-25T22:39:11.507Z,89.23
2023-02-25T22:41:41.629Z,89.40
2023-02-25T22:44:10.680Z,88.77
2023-02-25T22:46:41.385Z,88.38
2023-02-25T22:49:12.557Z,88.20
2023-02-25T22:51:44.718Z,88.27
2023-02-25T22:54:16.432Z,88.21
2023-02-25T22:56:49.711Z,87.82
2023-02-25T22:59:19.894Z,87.98
2023-02-25T23:01:48.783Z,87.35
2023-02-25T23:04:17.881Z,87.74
2023-02-25T23:06:47.050Z,87.53
2023-02-25T23:09:16.424Z,86.97
2023-02-25T23:11:46.756Z,86.43
2023-02-25T23:14:16.037Z,87.02
2023-02-25T23:16:46.819Z,87.45
2023-02-25T23:19:21.394Z,86.03
2023-02-25T23:21:50.240Z,85.41
2023-02-25T23:24:19.662Z,86.16
2023-02-25T23:26:53.694Z,85.28
2023-02-25T23:29:23.206Z,85.58
2023-02-25T23:31:52.056Z,84.80
2023-02-25T23:34:24.294Z,85.53
2023-02-25T23:36:57.845Z,84.46
2023-02-25T23:39:27.852Z,84.85
2023-02-25T23:41:58.031Z,84.98
2023-02-25T23:44:27.686Z,84.71
2023-02-25T23:46:56.615Z,85.02
2023-02-25T23:49:25.757Z,84.75
2023-02-25T23:51:54.957Z,85.27
2023-02-25T23:54:24.657Z,85.06
2023-02-25T23:56:53.579Z,85.25
2023-02-25T23:59:25.273Z,85.12
